Alto, Michigan
Current Conditions -  °F | °C
As of 5:53 AM on Friday 28 Nov 2014 (Local Time) from KGRR Reporting Station
Overcast Overcast  
Wind Chill: 20°   Ceiling: 3500
Heat Index: 20°   Visibility: 10mi
Dew Point: 13°   Wind: 3mph
Humidity: 74%   Direction: 190°S
Pressure: 30.34"   Gusts: NA
Location:  42.86°N, 85.38°W
Report Text: KGRR 281053Z 19003KT 10SM OVC035 M07/M11 A3034 RMK AO2 SLP288 T10671106 $
Loading
Personal Weather Stations






























Interactive Weather Map New forecast layout! Learn more

10-Day Weather Forecast

Advertisements
Track Severe Weather on mobile